sensor_id;sensor_type;location;lat;lon;timestamp;pressure;altitude;pressure_sealevel;temperature;humidity
17072;BME280;7731;50.720;6.912;2022-10-16T00:01:29;99689.66;;;13.26;100.00
17072;BME280;7731;50.720;6.912;2022-10-16T00:04:01;99685.84;;;13.18;100.00
17072;BME280;7731;50.720;6.912;2022-10-16T00:06:34;99680.50;;;13.09;100.00
17072;BME280;7731;50.720;6.912;2022-10-16T00:09:05;99680.69;;;13.06;100.00
17072;BME280;7731;50.720;6.912;2022-10-16T00:11:39;99680.50;;;13.09;100.00
17072;BME280;7731;50.720;6.912;2022-10-16T00:14:13;99685.66;;;13.09;100.00
17072;BME280;7731;50.720;6.912;2022-10-16T00:16:44;99678.00;;;13.07;100.00
17072;BME280;7731;50.720;6.912;2022-10-16T00:19:24;99680.91;;;13.02;100.00
17072;BME280;7731;50.720;6.912;2022-10-16T00:21:57;99685.81;;;12.93;100.00
17072;BME280;7731;50.720;6.912;2022-10-16T00:24:28;99695.13;;;12.95;100.00
17072;BME280;7731;50.720;6.912;2022-10-16T00:26:58;99694.22;;;12.96;100.00
17072;BME280;7731;50.720;6.912;2022-10-16T00:29:28;99680.91;;;13.02;100.00
17072;BME280;7731;50.720;6.912;2022-10-16T00:31:58;99691.53;;;12.98;100.00
17072;BME280;7731;50.720;6.912;2022-10-16T00:34:28;99692.25;;;13.00;100.00
17072;BME280;7731;50.720;6.912;2022-10-16T00:37:02;99694.00;;;12.99;100.00
17072;BME280;7731;50.720;6.912;2022-10-16T00:39:36;99678.28;;;12.90;100.00
17072;BME280;7731;50.720;6.912;2022-10-16T00:42:06;99661.31;;;12.87;100.00
17072;BME280;7731;50.720;6.912;2022-10-16T00:44:50;99678.72;;;12.96;100.00
17072;BME280;7731;50.720;6.912;2022-10-16T00:47:26;99680.56;;;12.94;100.00
17072;BME280;7731;50.720;6.912;2022-10-16T00:50:07;99684.81;;;12.95;100.00
17072;BME280;7731;50.720;6.912;2022-10-16T00:52:48;99675.94;;;12.99;100.00
17072;BME280;7731;50.720;6.912;2022-10-16T00:55:20;99677.38;;;13.03;100.00
17072;BME280;7731;50.720;6.912;2022-10-16T00:57:57;99672.75;;;13.09;100.00
17072;BME280;7731;50.720;6.912;2022-10-16T01:00:30;99680.50;;;13.34;100.00
17072;BME280;7731;50.720;6.912;2022-10-16T01:03:22;99681.50;;;13.19;100.00
17072;BME280;7731;50.720;6.912;2022-10-16T01:06:20;99671.19;;;13.32;100.00
17072;BME280;7731;50.720;6.912;2022-10-16T01:09:21;99676.34;;;13.45;100.00
17072;BME280;7731;50.720;6.912;2022-10-16T01:12:06;99673.88;;;13.43;100.00
17072;BME280;7731;50.720;6.912;2022-10-16T01:14:53;99676.66;;;13.27;100.00
17072;BME280;7731;50.720;6.912;2022-10-16T01:17:37;99687.59;;;13.18;100.00
17072;BME280;7731;50.720;6.912;2022-10-16T01:20:21;99692.03;;;13.16;100.00
17072;BME280;7731;50.720;6.912;2022-10-16T01:23:09;99698.00;;;13.03;100.00
17072;BME280;7731;50.720;6.912;2022-10-16T01:26:35;99699.16;;;12.99;100.00
17072;BME280;7731;50.720;6.912;2022-10-16T01:29:17;99709.28;;;13.02;100.00
17072;BME280;7731;50.720;6.912;2022-10-16T01:31:55;99697.69;;;12.95;100.00
17072;BME280;7731;50.720;6.912;2022-10-16T01:34:42;99694.72;;;12.89;100.00
17072;BME280;7731;50.720;6.912;2022-10-16T01:37:22;99694.06;;;12.85;100.00
17072;BME280;7731;50.720;6.912;2022-10-16T01:40:00;99697.59;;;12.84;100.00
17072;BME280;7731;50.720;6.912;2022-10-16T01:42:38;99693.06;;;13.00;100.00
17072;BME280;7731;50.720;6.912;2022-10-16T01:45:17;99698.94;;;13.02;100.00
17072;BME280;7731;50.720;6.912;2022-10-16T01:48:03;99711.63;;;13.06;100.00
17072;BME280;7731;50.720;6.912;2022-10-16T01:50:43;99708.31;;;13.03;100.00
17072;BME280;7731;50.720;6.912;2022-10-16T01:53:15;99716.19;;;13.15;100.00
17072;BME280;7731;50.720;6.912;2022-10-16T01:55:48;99715.03;;;13.19;100.00
17072;BME280;7731;50.720;6.912;2022-10-16T01:58:21;99710.63;;;13.21;100.00
17072;BME280;7731;50.720;6.912;2022-10-16T02:00:55;99703.91;;;13.18;100.00
17072;BME280;7731;50.720;6.912;2022-10-16T02:03:26;99694.50;;;13.30;100.00
17072;BME280;7731;50.720;6.912;2022-10-16T02:05:59;99696.19;;;13.44;100.00
17072;BME280;7731;50.720;6.912;2022-10-16T02:08:32;99713.22;;;13.34;100.00
17072;BME280;7731;50.720;6.912;2022-10-16T02:11:05;99726.94;;;13.34;100.00
17072;BME280;7731;50.720;6.912;2022-10-16T02:13:42;99727.75;;;13.48;100.00
17072;BME280;7731;50.720;6.912;2022-10-16T02:16:17;99727.34;;;13.41;100.00
17072;BME280;7731;50.720;6.912;2022-10-16T02:18:59;99714.47;;;13.41;100.00
17072;BME280;7731;50.720;6.912;2022-10-16T02:21:39;99697.28;;;13.14;100.00
17072;BME280;7731;50.720;6.912;2022-10-16T02:24:17;99704.09;;;13.15;100.00
17072;BME280;7731;50.720;6.912;2022-10-16T02:26:59;99703.78;;;13.20;100.00
17072;BME280;7731;50.720;6.912;2022-10-16T02:29:38;99709.25;;;13.15;100.00
17072;BME280;7731;50.720;6.912;2022-10-16T02:32:19;99711.03;;;13.15;100.00
17072;BME280;7731;50.720;6.912;2022-10-16T02:34:52;99723.31;;;13.24;100.00
17072;BME280;7731;50.720;6.912;2022-10-16T02:37:23;99718.34;;;13.21;100.00
17072;BME280;7731;50.720;6.912;2022-10-16T02:39:56;99734.75;;;13.20;100.00
17072;BME280;7731;50.720;6.912;2022-10-16T02:42:36;99727.50;;;13.25;100.00
17072;BME280;7731;50.720;6.912;2022-10-16T02:45:10;99717.25;;;13.38;100.00
17072;BME280;7731;50.720;6.912;2022-10-16T02:47:43;99716.19;;;13.28;100.00
17072;BME280;7731;50.720;6.912;2022-10-16T02:50:13;99721.13;;;13.44;100.00
17072;BME280;7731;50.720;6.912;2022-10-16T02:52:43;99732.72;;;13.38;100.00
17072;BME280;7731;50.720;6.912;2022-10-16T02:55:13;99724.97;;;13.51;100.00
17072;BME280;7731;50.720;6.912;2022-10-16T02:57:44;99740.94;;;13.56;100.00
17072;BME280;7731;50.720;6.912;2022-10-16T03:00:16;99729.78;;;13.68;100.00
17072;BME280;7731;50.720;6.912;2022-10-16T03:02:50;99717.63;;;13.45;100.00
17072;BME280;7731;50.720;6.912;2022-10-16T03:05:22;99697.91;;;13.44;100.00
17072;BME280;7731;50.720;6.912;2022-10-16T03:08:07;99698.44;;;13.49;100.00
17072;BME280;7731;50.720;6.912;2022-10-16T03:10:39;99709.47;;;13.51;100.00
17072;BME280;7731;50.720;6.912;2022-10-16T03:13:09;99712.25;;;13.61;100.00
17072;BME280;7731;50.720;6.912;2022-10-16T03:15:39;99717.00;;;13.54;100.00
17072;BME280;7731;50.720;6.912;2022-10-16T03:18:20;99715.34;;;13.66;100.00
17072;BME280;7731;50.720;6.912;2022-10-16T03:20:50;99719.66;;;13.65;100.00
17072;BME280;7731;50.720;6.912;2022-10-16T03:23:20;99722.88;;;13.69;100.00
17072;BME280;7731;50.720;6.912;2022-10-16T03:25:53;99702.97;;;13.58;100.00
17072;BME280;7731;50.720;6.912;2022-10-16T03:28:26;99710.19;;;13.53;100.00
17072;BME280;7731;50.720;6.912;2022-10-16T03:30:56;99705.25;;;13.50;100.00
17072;BME280;7731;50.720;6.912;2022-10-16T03:33:28;99706.47;;;13.57;100.00
17072;BME280;7731;50.720;6.912;2022-10-16T03:35:58;99725.88;;;13.50;100.00
17072;BME280;7731;50.720;6.912;2022-10-16T03:38:31;99720.72;;;13.50;100.00
17072;BME280;7731;50.720;6.912;2022-10-16T03:41:02;99719.28;;;13.58;100.00
17072;BME280;7731;50.720;6.912;2022-10-16T03:43:38;99717.72;;;13.56;100.00
17072;BME280;7731;50.720;6.912;2022-10-16T03:46:08;99721.97;;;13.57;100.00
17072;BME280;7731;50.720;6.912;2022-10-16T03:48:41;99721.53;;;13.63;100.00
17072;BME280;7731;50.720;6.912;2022-10-16T03:51:13;99731.44;;;13.69;100.00
17072;BME280;7731;50.720;6.912;2022-10-16T03:53:46;99738.47;;;13.67;100.00
17072;BME280;7731;50.720;6.912;2022-10-16T03:56:16;99738.47;;;13.67;100.00
17072;BME280;7731;50.720;6.912;2022-10-16T03:58:47;99734.03;;;13.69;100.00
17072;BME280;7731;50.720;6.912;2022-10-16T04:01:17;99740.09;;;13.81;100.00
17072;BME280;7731;50.720;6.912;2022-10-16T04:03:49;99737.25;;;13.73;100.00
17072;BME280;7731;50.720;6.912;2022-10-16T04:06:20;99748.81;;;13.67;100.00
17072;BME280;7731;50.720;6.912;2022-10-16T04:08:50;99753.13;;;13.67;100.00
17072;BME280;7731;50.720;6.912;2022-10-16T04:11:23;99758.09;;;13.57;100.00
17072;BME280;7731;50.720;6.912;2022-10-16T04:13:54;99766.56;;;13.59;100.00
17072;BME280;7731;50.720;6.912;2022-10-16T04:16:24;99760.25;;;13.63;100.00
17072;BME280;7731;50.720;6.912;2022-10-16T04:18:57;99748.56;;;13.83;100.00
17072;BME280;7731;50.720;6.912;2022-10-16T04:21:30;99743.22;;;13.73;100.00
17072;BME280;7731;50.720;6.912;2022-10-16T04:24:00;99753.09;;;13.92;100.00
17072;BME280;7731;50.720;6.912;2022-10-16T04:26:31;99752.31;;;13.66;100.00
17072;BME280;7731;50.720;6.912;2022-10-16T04:29:04;99761.81;;;13.53;100.00
17072;BME280;7731;50.720;6.912;2022-10-16T04:31:47;99772.13;;;13.53;100.00
17072;BME280;7731;50.720;6.912;2022-10-16T04:34:20;99770.69;;;13.62;100.00
17072;BME280;7731;50.720;6.912;2022-10-16T04:36:52;99765.13;;;13.55;100.00
17072;BME280;7731;50.720;6.912;2022-10-16T04:39:22;99766.47;;;13.48;100.00
17072;BME280;7731;50.720;6.912;2022-10-16T04:41:55;99783.50;;;13.50;100.00
17072;BME280;7731;50.720;6.912;2022-10-16T04:44:28;99778.94;;;13.54;100.00
17072;BME280;7731;50.720;6.912;2022-10-16T04:46:58;99764.38;;;13.53;100.00
17072;BME280;7731;50.720;6.912;2022-10-16T04:49:34;99766.56;;;13.46;100.00
17072;BME280;7731;50.720;6.912;2022-10-16T04:52:05;99772.44;;;13.48;100.00
17072;BME280;7731;50.720;6.912;2022-10-16T04:54:36;99781.44;;;13.43;100.00
17072;BME280;7731;50.720;6.912;2022-10-16T04:57:09;99780.59;;;13.42;100.00
17072;BME280;7731;50.720;6.912;2022-10-16T04:59:39;99792.16;;;13.62;100.00
17072;BME280;7731;50.720;6.912;2022-10-16T05:02:12;99799.19;;;13.60;100.00
17072;BME280;7731;50.720;6.912;2022-10-16T05:04:46;99797.63;;;13.45;100.00
17072;BME280;7731;50.720;6.912;2022-10-16T05:07:16;99790.28;;;13.51;100.00
17072;BME280;7731;50.720;6.912;2022-10-16T05:09:47;99783.47;;;13.37;100.00
17072;BME280;7731;50.720;6.912;2022-10-16T05:12:17;99780.91;;;13.37;100.00
17072;BME280;7731;50.720;6.912;2022-10-16T05:14:47;99789.44;;;13.25;100.00
17072;BME280;7731;50.720;6.912;2022-10-16T05:17:22;99776.13;;;13.31;100.00
17072;BME280;7731;50.720;6.912;2022-10-16T05:19:55;99787.00;;;13.36;100.00
17072;BME280;7731;50.720;6.912;2022-10-16T05:22:25;99792.75;;;13.27;100.00
17072;BME280;7731;50.720;6.912;2022-10-16T05:24:58;99784.03;;;13.43;100.00
17072;BME280;7731;50.720;6.912;2022-10-16T05:27:31;99797.13;;;13.39;100.00
17072;BME280;7731;50.720;6.912;2022-10-16T05:30:01;99801.78;;;13.47;100.00
17072;BME280;7731;50.720;6.912;2022-10-16T05:32:36;99810.75;;;13.42;100.00
17072;BME280;7731;50.720;6.912;2022-10-16T05:35:11;99792.97;;;13.50;100.00
17072;BME280;7731;50.720;6.912;2022-10-16T05:37:50;99785.34;;;13.35;100.00
17072;BME280;7731;50.720;6.912;2022-10-16T05:40:20;99790.72;;;13.58;100.00
17072;BME280;7731;50.720;6.912;2022-10-16T05:42:55;99809.09;;;13.40;100.00
17072;BME280;7731;50.720;6.912;2022-10-16T05:45:26;99816.31;;;13.35;100.00
17072;BME280;7731;50.720;6.912;2022-10-16T05:47:56;99810.81;;;13.27;100.00
17072;BME280;7731;50.720;6.912;2022-10-16T05:50:34;99813.59;;;13.24;100.00
17072;BME280;7731;50.720;6.912;2022-10-16T05:53:12;99824.72;;;13.25;100.00
17072;BME280;7731;50.720;6.912;2022-10-16T05:55:42;99832.72;;;13.34;100.00
17072;BME280;7731;50.720;6.912;2022-10-16T05:58:12;99831.97;;;13.32;100.00
17072;BME280;7731;50.720;6.912;2022-10-16T06:00:42;99825.16;;;13.31;100.00
17072;BME280;7731;50.720;6.912;2022-10-16T06:03:12;99833.88;;;13.56;100.00
17072;BME280;7731;50.720;6.912;2022-10-16T06:05:52;99841.19;;;13.36;100.00
17072;BME280;7731;50.720;6.912;2022-10-16T06:08:23;99849.97;;;13.47;100.00
17072;BME280;7731;50.720;6.912;2022-10-16T06:11:01;99842.22;;;13.47;100.00
17072;BME280;7731;50.720;6.912;2022-10-16T06:13:35;99851.53;;;13.36;100.00
17072;BME280;7731;50.720;6.912;2022-10-16T06:16:07;99863.31;;;13.26;100.00
17072;BME280;7731;50.720;6.912;2022-10-16T06:18:37;99855.06;;;13.21;100.00
17072;BME280;7731;50.720;6.912;2022-10-16T06:21:12;99854.66;;;13.27;100.00
17072;BME280;7731;50.720;6.912;2022-10-16T06:23:44;99871.38;;;13.21;100.00
17072;BME280;7731;50.720;6.912;2022-10-16T06:26:18;99871.66;;;13.17;100.00
17072;BME280;7731;50.720;6.912;2022-10-16T06:28:51;99865.72;;;13.02;100.00
17072;BME280;7731;50.720;6.912;2022-10-16T06:31:24;99874.31;;;13.02;100.00
17072;BME280;7731;50.720;6.912;2022-10-16T06:33:58;99892.16;;;13.06;100.00
17072;BME280;7731;50.720;6.912;2022-10-16T06:36:35;99899.69;;;12.81;100.00
17072;BME280;7731;50.720;6.912;2022-10-16T06:39:05;99905.13;;;12.77;100.00
17072;BME280;7731;50.720;6.912;2022-10-16T06:41:36;99894.81;;;12.77;100.00
17072;BME280;7731;50.720;6.912;2022-10-16T06:44:07;99894.00;;;13.03;100.00
17072;BME280;7731;50.720;6.912;2022-10-16T06:46:42;99897.97;;;13.22;100.00
17072;BME280;7731;50.720;6.912;2022-10-16T06:49:21;99911.28;;;13.16;100.00
17072;BME280;7731;50.720;6.912;2022-10-16T06:51:54;99908.28;;;13.22;100.00
17072;BME280;7731;50.720;6.912;2022-10-16T06:54:24;99906.56;;;13.22;100.00
17072;BME280;7731;50.720;6.912;2022-10-16T06:56:55;99900.06;;;13.57;100.00
17072;BME280;7731;50.720;6.912;2022-10-16T06:59:27;99916.91;;;13.75;100.00
17072;BME280;7731;50.720;6.912;2022-10-16T07:01:57;99927.53;;;13.58;100.00
17072;BME280;7731;50.720;6.912;2022-10-16T07:04:27;99928.03;;;13.50;100.00
17072;BME280;7731;50.720;6.912;2022-10-16T07:07:00;99934.59;;;13.42;100.00
17072;BME280;7731;50.720;6.912;2022-10-16T07:09:35;99939.28;;;13.49;100.00
17072;BME280;7731;50.720;6.912;2022-10-16T07:12:07;99942.00;;;13.73;100.00
17072;BME280;7731;50.720;6.912;2022-10-16T07:14:38;99945.25;;;13.90;100.00
17072;BME280;7731;50.720;6.912;2022-10-16T07:17:08;99945.22;;;14.16;100.00
17072;BME280;7731;50.720;6.912;2022-10-16T07:19:38;99953.19;;;14.38;100.00
17072;BME280;7731;50.720;6.912;2022-10-16T07:22:11;99962.59;;;14.39;100.00
17072;BME280;7731;50.720;6.912;2022-10-16T07:24:41;99970.25;;;14.28;100.00
17072;BME280;7731;50.720;6.912;2022-10-16T07:27:17;99975.72;;;14.23;100.00
17072;BME280;7731;50.720;6.912;2022-10-16T07:29:49;99988.53;;;14.12;100.00
17072;BME280;7731;50.720;6.912;2022-10-16T07:32:22;99993.19;;;14.20;100.00
17072;BME280;7731;50.720;6.912;2022-10-16T07:35:02;99993.81;;;14.10;100.00
17072;BME280;7731;50.720;6.912;2022-10-16T07:37:37;99983.38;;;14.76;100.00
17072;BME280;7731;50.720;6.912;2022-10-16T07:40:14;99991.94;;;14.90;100.00
17072;BME280;7731;50.720;6.912;2022-10-16T07:42:45;99997.31;;;14.87;100.00
17072;BME280;7731;50.720;6.912;2022-10-16T07:45:18;99996.66;;;15.33;100.00
17072;BME280;7731;50.720;6.912;2022-10-16T07:47:48;100007.84;;;15.58;100.00
17072;BME280;7731;50.720;6.912;2022-10-16T07:50:21;100008.22;;;16.00;100.00
17072;BME280;7731;50.720;6.912;2022-10-16T07:52:54;100021.91;;;16.02;100.00
17072;BME280;7731;50.720;6.912;2022-10-16T07:55:24;100020.19;;;15.78;100.00
17072;BME280;7731;50.720;6.912;2022-10-16T07:57:55;100029.72;;;15.78;100.00
17072;BME280;7731;50.720;6.912;2022-10-16T08:00:25;100031.66;;;15.74;100.00
17072;BME280;7731;50.720;6.912;2022-10-16T08:02:56;100035.28;;;15.36;100.00
17072;BME280;7731;50.720;6.912;2022-10-16T08:05:31;100033.03;;;15.18;100.00
17072;BME280;7731;50.720;6.912;2022-10-16T08:08:05;100036.56;;;15.17;100.00
17072;BME280;7731;50.720;6.912;2022-10-16T08:10:35;100036.47;;;15.19;100.00
17072;BME280;7731;50.720;6.912;2022-10-16T08:13:05;100043.75;;;15.38;100.00
17072;BME280;7731;50.720;6.912;2022-10-16T08:15:48;100046.25;;;16.35;100.00
17072;BME280;7731;50.720;6.912;2022-10-16T08:18:18;100039.78;;;17.63;91.29
17072;BME280;7731;50.720;6.912;2022-10-16T08:20:58;100046.84;;;18.26;85.88
17072;BME280;7731;50.720;6.912;2022-10-16T08:23:34;100041.06;;;18.44;87.85
17072;BME280;7731;50.720;6.912;2022-10-16T08:26:07;100043.16;;;20.76;72.02
17072;BME280;7731;50.720;6.912;2022-10-16T08:28:38;100042.31;;;22.56;61.84
17072;BME280;7731;50.720;6.912;2022-10-16T08:31:10;100046.13;;;23.04;59.26
17072;BME280;7731;50.720;6.912;2022-10-16T08:33:43;100046.72;;;23.57;55.42
17072;BME280;7731;50.720;6.912;2022-10-16T08:36:17;100051.53;;;22.16;58.32
17072;BME280;7731;50.720;6.912;2022-10-16T08:38:55;100057.38;;;22.09;59.82
17072;BME280;7731;50.720;6.912;2022-10-16T08:42:07;100066.75;;;21.40;64.47
17072;BME280;7731;50.720;6.912;2022-10-16T08:45:15;100070.41;;;20.54;66.46
17072;BME280;7731;50.720;6.912;2022-10-16T08:48:03;100076.13;;;19.81;69.75
17072;BME280;7731;50.720;6.912;2022-10-16T08:50:39;100085.28;;;18.74;77.15
17072;BME280;7731;50.720;6.912;2022-10-16T08:53:18;100084.38;;;19.06;76.39
17072;BME280;7731;50.720;6.912;2022-10-16T08:55:53;100087.75;;;18.97;74.94
17072;BME280;7731;50.720;6.912;2022-10-16T08:58:29;100084.09;;;18.79;76.58
17072;BME280;7731;50.720;6.912;2022-10-16T09:01:03;100076.69;;;19.05;76.62
17072;BME280;7731;50.720;6.912;2022-10-16T09:03:56;100083.56;;;18.54;79.13
17072;BME280;7731;50.720;6.912;2022-10-16T09:06:44;100091.50;;;19.04;76.52
17072;BME280;7731;50.720;6.912;2022-10-16T09:09:48;100084.53;;;19.85;74.55
17072;BME280;7731;50.720;6.912;2022-10-16T09:12:33;100086.88;;;20.64;68.51
17072;BME280;7731;50.720;6.912;2022-10-16T09:15:22;100086.09;;;20.92;66.71
17072;BME280;7731;50.720;6.912;2022-10-16T09:18:14;100095.94;;;20.70;64.70
17072;BME280;7731;50.720;6.912;2022-10-16T09:20:55;100095.81;;;20.99;64.00
17072;BME280;7731;50.720;6.912;2022-10-16T09:23:36;100092.59;;;22.15;60.54
17072;BME280;7731;50.720;6.912;2022-10-16T09:26:11;100093.41;;;22.94;56.31
17072;BME280;7731;50.720;6.912;2022-10-16T09:28:46;100093.81;;;24.97;47.84
17072;BME280;7731;50.720;6.912;2022-10-16T09:31:19;100089.59;;;26.35;43.94
17072;BME280;7731;50.720;6.912;2022-10-16T09:33:58;100093.69;;;23.93;51.45
17072;BME280;7731;50.720;6.912;2022-10-16T09:36:43;100092.31;;;22.71;53.64
17072;BME280;7731;50.720;6.912;2022-10-16T09:39:14;100083.06;;;24.75;47.92
17072;BME280;7731;50.720;6.912;2022-10-16T09:41:45;100074.97;;;26.92;41.83
17072;BME280;7731;50.720;6.912;2022-10-16T09:44:26;100078.16;;;26.43;39.79
17072;BME280;7731;50.720;6.912;2022-10-16T09:47:14;100086.44;;;25.32;41.93
17072;BME280;7731;50.720;6.912;2022-10-16T09:49:58;100093.81;;;24.33;46.01
17072;BME280;7731;50.720;6.912;2022-10-16T09:52:31;100099.16;;;24.72;43.71
17072;BME280;7731;50.720;6.912;2022-10-16T09:55:15;100102.41;;;23.26;47.64
17072;BME280;7731;50.720;6.912;2022-10-16T09:57:52;100105.09;;;21.49;52.55
17072;BME280;7731;50.720;6.912;2022-10-16T10:00:28;100089.88;;;22.43;50.43
17072;BME280;7731;50.720;6.912;2022-10-16T10:02:59;100078.25;;;24.06;44.94
17072;BME280;7731;50.720;6.912;2022-10-16T10:05:30;100082.56;;;22.81;49.55
17072;BME280;7731;50.720;6.912;2022-10-16T10:08:02;100080.13;;;23.22;48.81
17072;BME280;7731;50.720;6.912;2022-10-16T10:10:41;100083.88;;;21.88;52.70
17072;BME280;7731;50.720;6.912;2022-10-16T10:13:21;100076.72;;;21.27;53.62
17072;BME280;7731;50.720;6.912;2022-10-16T10:15:57;100076.03;;;21.88;51.13
17072;BME280;7731;50.720;6.912;2022-10-16T10:18:27;100066.19;;;21.18;52.69
17072;BME280;7731;50.720;6.912;2022-10-16T10:21:01;100068.50;;;21.49;52.65
17072;BME280;7731;50.720;6.912;2022-10-16T10:23:33;100073.41;;;21.88;51.45
17072;BME280;7731;50.720;6.912;2022-10-16T10:26:10;100066.28;;;22.35;49.29
17072;BME280;7731;50.720;6.912;2022-10-16T10:28:55;100067.88;;;23.47;47.13
17072;BME280;7731;50.720;6.912;2022-10-16T10:31:45;100078.06;;;23.08;48.33
17072;BME280;7731;50.720;6.912;2022-10-16T10:34:38;100091.34;;;23.65;47.58
17072;BME280;7731;50.720;6.912;2022-10-16T10:37:39;100084.44;;;23.64;47.91
17072;BME280;7731;50.720;6.912;2022-10-16T10:40:39;100080.91;;;22.27;50.72
17072;BME280;7731;50.720;6.912;2022-10-16T10:43:24;100088.47;;;22.91;48.61
17072;BME280;7731;50.720;6.912;2022-10-16T10:46:04;100077.06;;;24.98;41.96
17072;BME280;7731;50.720;6.912;2022-10-16T10:52:02;100080.78;;;24.72;42.54
17072;BME280;7731;50.720;6.912;2022-10-16T10:54:50;100071.53;;;27.43;36.14
17072;BME280;7731;50.720;6.912;2022-10-16T10:57:29;100082.53;;;23.99;42.99
17072;BME280;7731;50.720;6.912;2022-10-16T11:00:33;100075.81;;;25.48;40.64
17072;BME280;7731;50.720;6.912;2022-10-16T11:03:21;100083.16;;;24.34;43.72
17072;BME280;7731;50.720;6.912;2022-10-16T11:05:59;100103.97;;;23.11;46.28
17072;BME280;7731;50.720;6.912;2022-10-16T11:08:39;100095.16;;;24.04;43.84
17072;BME280;7731;50.720;6.912;2022-10-16T11:11:18;100102.22;;;23.87;43.83
17072;BME280;7731;50.720;6.912;2022-10-16T11:14:04;100101.94;;;22.96;45.70
17072;BME280;7731;50.720;6.912;2022-10-16T11:17:02;100097.22;;;22.65;48.02
17072;BME280;7731;50.720;6.912;2022-10-16T11:19:45;100095.25;;;22.23;49.06
17072;BME280;7731;50.720;6.912;2022-10-16T11:22:24;100102.66;;;21.66;50.93
17072;BME280;7731;50.720;6.912;2022-10-16T11:25:04;100094.38;;;22.33;48.73
17072;BME280;7731;50.720;6.912;2022-10-16T11:27:44;100104.28;;;22.03;50.63
17072;BME280;7731;50.720;6.912;2022-10-16T11:30:22;100093.44;;;23.03;46.75
17072;BME280;7731;50.720;6.912;2022-10-16T11:33:25;100095.81;;;22.79;46.81
17072;BME280;7731;50.720;6.912;2022-10-16T11:36:08;100093.34;;;23.12;45.63
17072;BME280;7731;50.720;6.912;2022-10-16T11:38:50;100105.72;;;22.23;47.86
17072;BME280;7731;50.720;6.912;2022-10-16T11:41:34;100116.44;;;21.76;49.69
17072;BME280;7731;50.720;6.912;2022-10-16T11:44:20;100115.34;;;21.97;49.76
17072;BME280;7731;50.720;6.912;2022-10-16T11:47:10;100125.94;;;20.66;54.70
17072;BME280;7731;50.720;6.912;2022-10-16T11:50:17;100128.94;;;20.61;55.01
17072;BME280;7731;50.720;6.912;2022-10-16T11:52:56;100126.19;;;20.63;56.32
17072;BME280;7731;50.720;6.912;2022-10-16T11:55:37;100126.97;;;20.73;55.99
17072;BME280;7731;50.720;6.912;2022-10-16T11:58:22;100117.16;;;20.47;57.41
17072;BME280;7731;50.720;6.912;2022-10-16T12:01:05;100122.47;;;20.56;55.69
17072;BME280;7731;50.720;6.912;2022-10-16T12:03:46;100114.03;;;19.85;57.21
17072;BME280;7731;50.720;6.912;2022-10-16T12:06:30;100114.38;;;19.51;59.49
17072;BME280;7731;50.720;6.912;2022-10-16T12:09:01;100106.44;;;19.72;58.70
17072;BME280;7731;50.720;6.912;2022-10-16T12:11:39;100106.19;;;19.95;58.30
17072;BME280;7731;50.720;6.912;2022-10-16T12:14:36;100104.00;;;20.00;57.90
17072;BME280;7731;50.720;6.912;2022-10-16T12:17:36;100104.16;;;20.18;59.33
17072;BME280;7731;50.720;6.912;2022-10-16T12:20:29;100115.66;;;19.96;59.84
17072;BME280;7731;50.720;6.912;2022-10-16T12:23:06;100105.78;;;20.29;58.22
17072;BME280;7731;50.720;6.912;2022-10-16T12:25:39;100114.66;;;20.56;55.99
17072;BME280;7731;50.720;6.912;2022-10-16T12:28:32;100117.66;;;20.61;56.70
17072;BME280;7731;50.720;6.912;2022-10-16T12:31:06;100112.31;;;20.52;56.29
17072;BME280;7731;50.720;6.912;2022-10-16T12:33:59;100114.41;;;20.39;56.76
17072;BME280;7731;50.720;6.912;2022-10-16T12:36:35;100115.78;;;20.33;56.85
17072;BME280;7731;50.720;6.912;2022-10-16T12:39:22;100112.13;;;19.97;58.61
17072;BME280;7731;50.720;6.912;2022-10-16T12:42:31;100111.53;;;20.13;59.41
17072;BME280;7731;50.720;6.912;2022-10-16T12:45:30;100113.91;;;20.06;60.17
17072;BME280;7731;50.720;6.912;2022-10-16T12:48:19;100096.03;;;20.11;60.51
17072;BME280;7731;50.720;6.912;2022-10-16T12:51:22;100096.47;;;20.16;61.42
17072;BME280;7731;50.720;6.912;2022-10-16T12:53:59;100092.75;;;20.29;60.48
17072;BME280;7731;50.720;6.912;2022-10-16T12:56:43;100088.53;;;20.56;59.45
17072;BME280;7731;50.720;6.912;2022-10-16T12:59:35;100101.78;;;20.44;60.37
17072;BME280;7731;50.720;6.912;2022-10-16T13:02:49;100111.16;;;20.84;59.35
17072;BME280;7731;50.720;6.912;2022-10-16T13:05:38;100109.00;;;21.08;58.96
17072;BME280;7731;50.720;6.912;2022-10-16T13:08:34;100110.16;;;20.85;60.83
17072;BME280;7731;50.720;6.912;2022-10-16T13:11:19;100112.03;;;20.56;60.79
17072;BME280;7731;50.720;6.912;2022-10-16T13:14:15;100115.66;;;20.92;58.94
17072;BME280;7731;50.720;6.912;2022-10-16T13:17:02;100118.63;;;21.07;58.79
17072;BME280;7731;50.720;6.912;2022-10-16T13:19:50;100115.91;;;20.99;60.00
17072;BME280;7731;50.720;6.912;2022-10-16T13:22:30;100112.69;;;20.77;61.04
17072;BME280;7731;50.720;6.912;2022-10-16T13:25:20;100107.72;;;20.84;61.67
17072;BME280;7731;50.720;6.912;2022-10-16T13:28:06;100116.03;;;20.60;63.09
17072;BME280;7731;50.720;6.912;2022-10-16T13:30:43;100116.03;;;20.50;63.57
17072;BME280;7731;50.720;6.912;2022-10-16T13:33:19;100123.78;;;20.12;63.44
17072;BME280;7731;50.720;6.912;2022-10-16T13:35:57;100124.28;;;20.55;62.99
17072;BME280;7731;50.720;6.912;2022-10-16T13:38:35;100124.31;;;20.16;64.92
17072;BME280;7731;50.720;6.912;2022-10-16T13:41:15;100117.16;;;20.28;63.72
17072;BME280;7731;50.720;6.912;2022-10-16T13:43:50;100113.88;;;20.26;63.17
17072;BME280;7731;50.720;6.912;2022-10-16T13:46:24;100120.59;;;20.38;63.19
17072;BME280;7731;50.720;6.912;2022-10-16T13:49:01;100116.31;;;20.57;62.82
17072;BME280;7731;50.720;6.912;2022-10-16T13:51:39;100123.03;;;20.49;63.54
17072;BME280;7731;50.720;6.912;2022-10-16T13:54:11;100122.75;;;20.72;62.74
17072;BME280;7731;50.720;6.912;2022-10-16T13:56:46;100132.19;;;20.73;62.02
17072;BME280;7731;50.720;6.912;2022-10-16T13:59:38;100119.72;;;20.57;63.51